Time;durP1;ratioP1;P1;durP2;ratioP2;P2;SDS_P1;SDS_P2;PMS_P1;PMS_P2;Temp;Humidity;BMP_temperature;BMP_pressure;BME280_temperature;BME280_humidity;BME280_pressure;Samples;Min_cycle;Max_cycle;Signal;HPM_P1;HPM_P2
2022/10/30 00:00:13;;;;;;;14.35;7.72;;;;;;;;;;2106918;28;20048;-45
2022/10/30 00:01:14;;;;;;;15.98;8.18;;;;;;;;;;2106698;28;20052;-45
2022/10/30 00:02:15;;;;;;;20.60;8.20;;;;;;;;;;2106967;28;20461;-45
2022/10/30 00:03:17;;;;;;;11.50;7.57;;;;;;;;;;2106811;28;20058;-45
2022/10/30 00:04:19;;;;;;;15.88;8.23;;;;;;;;;;2106755;28;20048;-47
2022/10/30 00:05:20;;;;;;;17.77;8.18;;;;;;;;;;2106758;28;20055;-46
2022/10/30 00:06:21;;;;;;;14.25;8.38;;;;;;;;;;2106995;28;20059;-45
2022/10/30 00:07:22;;;;;;;15.05;8.68;;;;;;;;;;2106705;28;20056;-46
2022/10/30 00:08:24;;;;;;;13.60;8.23;;;;;;;;;;2106954;28;20055;-45
2022/10/30 00:09:25;;;;;;;16.55;8.55;;;;;;;;;;2106957;28;20048;-46
2022/10/30 00:10:27;;;;;;;16.63;7.20;;;;;;;;;;2106283;28;20097;-44
2022/10/30 00:11:28;;;;;;;;;;;;;;;;;;2107028;28;20055;-44
2022/10/30 00:12:29;;;;;;;14.98;8.73;;;;;;;;;;2106620;28;19920;-45
2022/10/30 00:13:30;;;;;;;16.38;8.68;;;;;;;;;;2106861;28;20056;-44
2022/10/30 00:14:31;;;;;;;14.30;7.97;;;;;;;;;;2106721;28;20048;-45
2022/10/30 00:15:32;;;;;;;17.17;8.43;;;;;;;;;;2106602;28;20443;-44
2022/10/30 00:16:33;;;;;;;17.63;8.38;;;;;;;;;;2106686;28;20052;-46
2022/10/30 00:17:34;;;;;;;17.92;8.13;;;;;;;;;;2106671;28;20437;-44
2022/10/30 00:18:35;;;;;;;15.00;7.72;;;;;;;;;;2106750;28;20048;-45
2022/10/30 00:19:36;;;;;;;15.50;7.88;;;;;;;;;;2106671;28;20612;-44
2022/10/30 00:20:37;;;;;;;15.53;8.43;;;;;;;;;;2106648;28;20048;-45
2022/10/30 00:21:38;;;;;;;16.45;7.95;;;;;;;;;;2106895;28;20052;-44
2022/10/30 00:22:39;;;;;;;11.67;7.30;;;;;;;;;;2106867;28;20515;-44
2022/10/30 00:23:44;;;;;;;18.65;8.25;;;;;;;;;;2106573;28;20453;-44
2022/10/30 00:24:45;;;;;;;14.43;7.68;;;;;;;;;;2106720;28;20048;-44
2022/10/30 00:25:47;;;;;;;13.43;8.35;;;;;;;;;;2106608;28;20051;-44
2022/10/30 00:26:48;;;;;;;18.63;8.68;;;;;;;;;;2106784;28;20044;-44
2022/10/30 00:27:49;;;;;;;12.95;7.68;;;;;;;;;;2106672;28;20097;-43
2022/10/30 00:28:51;;;;;;;21.83;8.03;;;;;;;;;;2106805;28;20059;-44
2022/10/30 00:29:51;;;;;;;14.50;7.28;;;;;;;;;;2106557;28;20440;-44
2022/10/30 00:30:53;;;;;;;13.17;7.57;;;;;;;;;;2106640;28;20052;-44
2022/10/30 00:31:53;;;;;;;11.55;7.60;;;;;;;;;;2106570;28;20078;-45
2022/10/30 00:32:55;;;;;;;17.50;7.95;;;;;;;;;;2106826;28;20079;-45
2022/10/30 00:33:56;;;;;;;14.00;8.05;;;;;;;;;;2106688;28;20052;-46
2022/10/30 00:34:57;;;;;;;14.13;7.75;;;;;;;;;;2106547;28;20040;-45
2022/10/30 00:35:58;;;;;;;11.32;7.50;;;;;;;;;;2106348;28;20392;-46
2022/10/30 00:37:00;;;;;;;18.75;8.20;;;;;;;;;;2106562;28;20085;-46
2022/10/30 00:38:01;;;;;;;13.60;7.17;;;;;;;;;;2106707;28;20050;-45
2022/10/30 00:39:02;;;;;;;10.38;6.32;;;;;;;;;;2106581;28;20330;-45
2022/10/30 00:40:05;;;;;;;11.80;6.50;;;;;;;;;;2106496;28;20292;-46
2022/10/30 00:41:12;;;;;;;12.48;7.32;;;;;;;;;;2106586;28;20056;-45
2022/10/30 00:42:14;;;;;;;12.35;6.97;;;;;;;;;;2106528;28;20505;-45
2022/10/30 00:43:28;;;;;;;10.30;6.35;;;;;;;;;;2106538;28;20044;-45
2022/10/30 00:44:34;;;;;;;13.55;7.13;;;;;;;;;;2106460;28;20082;-45
2022/10/30 00:45:35;;;;;;;11.18;7.18;;;;;;;;;;2106613;28;20051;-45
2022/10/30 00:46:37;;;;;;;10.33;6.03;;;;;;;;;;2106582;28;20072;-46
2022/10/30 00:47:41;;;;;;;13.18;7.43;;;;;;;;;;2107000;28;20059;-45
2022/10/30 00:48:43;;;;;;;13.05;6.97;;;;;;;;;;2106451;28;20036;-47
2022/10/30 00:49:49;;;;;;;13.57;6.72;;;;;;;;;;2106630;28;20105;-46
2022/10/30 00:50:51;;;;;;;12.57;7.00;;;;;;;;;;2106341;28;20392;-45
2022/10/30 00:51:53;;;;;;;10.98;7.25;;;;;;;;;;2106790;28;20048;-45
2022/10/30 00:52:57;;;;;;;16.02;7.40;;;;;;;;;;2106425;28;20497;-45
2022/10/30 00:53:59;;;;;;;12.70;6.85;;;;;;;;;;2106406;28;20044;-46
2022/10/30 00:55:06;;;;;;;13.00;6.97;;;;;;;;;;2106218;28;20480;-45
2022/10/30 00:56:10;;;;;;;13.15;7.03;;;;;;;;;;2106406;28;20562;-45
2022/10/30 00:57:11;;;;;;;12.85;7.05;;;;;;;;;;2106398;28;20055;-45
2022/10/30 00:58:15;;;;;;;16.38;7.45;;;;;;;;;;2106425;28;20044;-46
2022/10/30 00:59:18;;;;;;;12.73;7.00;;;;;;;;;;2106418;28;20071;-45
2022/10/30 01:00:20;;;;;;;14.73;7.88;;;;;;;;;;2106455;28;20538;-48
2022/10/30 01:01:23;;;;;;;15.30;7.43;;;;;;;;;;2106404;28;20044;-44
2022/10/30 01:02:24;;;;;;;13.32;7.57;;;;;;;;;;2106494;28;20062;-45
2022/10/30 01:03:27;;;;;;;12.98;6.85;;;;;;;;;;2106418;28;20126;-45
2022/10/30 01:04:28;;;;;;;12.27;7.38;;;;;;;;;;2106603;28;20044;-45
2022/10/30 01:05:32;;;;;;;14.45;6.93;;;;;;;;;;2106320;28;20440;-46
2022/10/30 01:06:34;;;;;;;19.40;7.45;;;;;;;;;;2106230;28;20386;-46
2022/10/30 01:07:35;;;;;;;13.38;6.88;;;;;;;;;;2106696;28;20068;-45
2022/10/30 01:08:36;;;;;;;14.88;7.22;;;;;;;;;;2106338;28;20086;-45
2022/10/30 01:09:38;;;;;;;11.68;7.63;;;;;;;;;;2106292;28;20350;-45
2022/10/30 01:10:39;;;;;;;12.57;6.20;;;;;;;;;;2106307;28;20040;-45
2022/10/30 01:11:41;;;;;;;10.00;6.67;;;;;;;;;;2106427;28;20055;-45
2022/10/30 01:12:44;;;;;;;9.98;6.50;;;;;;;;;;2106386;28;20284;-45
2022/10/30 01:13:46;;;;;;;11.43;6.40;;;;;;;;;;2106607;28;20052;-46
2022/10/30 01:14:48;;;;;;;13.32;6.30;;;;;;;;;;2115077;28;20055;-46
2022/10/30 01:15:56;;;;;;;12.88;6.13;;;;;;;;;;2114699;28;20124;-46
2022/10/30 01:17:02;;;;;;;9.63;5.70;;;;;;;;;;2114710;28;20381;-45
2022/10/30 01:18:21;;;;;;;8.73;6.13;;;;;;;;;;2114785;28;20267;-44
2022/10/30 01:19:25;;;;;;;11.07;6.88;;;;;;;;;;2114373;28;20048;-44
2022/10/30 01:20:34;;;;;;;13.48;6.55;;;;;;;;;;2114811;28;20058;-44
2022/10/30 01:21:43;;;;;;;9.77;5.88;;;;;;;;;;2114687;28;20040;-44
2022/10/30 01:22:49;;;;;;;9.13;5.70;;;;;;;;;;2113743;28;20048;-43
2022/10/30 01:23:55;;;;;;;12.38;6.95;;;;;;;;;;2114778;28;20044;-43
2022/10/30 01:25:01;;;;;;;14.45;6.90;;;;;;;;;;2114726;28;20056;-44
2022/10/30 01:26:07;;;;;;;11.70;5.82;;;;;;;;;;2114702;28;20039;-46
2022/10/30 01:27:14;;;;;;;11.40;6.60;;;;;;;;;;2114821;28;20093;-44
2022/10/30 01:28:25;;;;;;;11.38;6.43;;;;;;;;;;2114641;28;20075;-43
2022/10/30 01:29:34;;;;;;;13.18;6.30;;;;;;;;;;2114732;28;20484;-45
2022/10/30 01:30:42;;;;;;;17.23;5.97;;;;;;;;;;2114726;28;20050;-44
2022/10/30 01:31:48;;;;;;;13.45;6.32;;;;;;;;;;2114971;28;20040;-45
2022/10/30 01:32:57;;;;;;;12.48;6.53;;;;;;;;;;2114708;28;20054;-45
2022/10/30 01:34:04;;;;;;;11.25;5.82;;;;;;;;;;2114792;28;20064;-44
2022/10/30 01:35:09;;;;;;;14.35;6.50;;;;;;;;;;2114704;28;20047;-44
2022/10/30 01:36:13;;;;;;;13.15;6.32;;;;;;;;;;2111213;28;20502;-46
2022/10/30 01:37:17;;;;;;;12.88;6.32;;;;;;;;;;2106117;28;20044;-45
2022/10/30 01:38:20;;;;;;;13.55;5.85;;;;;;;;;;2106126;28;20404;-45
2022/10/30 01:39:22;;;;;;;12.43;6.35;;;;;;;;;;2106226;28;20048;-44
2022/10/30 01:40:23;;;;;;;10.50;6.05;;;;;;;;;;2106241;28;20044;-46
2022/10/30 01:41:24;;;;;;;11.68;5.70;;;;;;;;;;2106252;28;20059;-45
2022/10/30 01:42:44;;;;;;;15.90;5.93;;;;;;;;;;2106117;28;20079;-44
2022/10/30 01:43:46;;;;;;;13.50;6.13;;;;;;;;;;2106238;28;20048;-44
2022/10/30 01:44:47;;;;;;;14.40;6.68;;;;;;;;;;2106079;28;20448;-44
2022/10/30 01:46:04;;;;;;;12.23;6.57;;;;;;;;;;2106350;28;20044;-44
2022/10/30 01:47:12;;;;;;;13.77;5.80;;;;;;;;;;2106466;28;20044;-45
2022/10/30 01:48:22;;;;;;;12.95;5.90;;;;;;;;;;2106245;28;20060;-45
2022/10/30 01:49:36;;;;;;;8.68;5.60;;;;;;;;;;2106257;28;20052;-45
2022/10/30 01:50:41;;;;;;;10.82;6.38;;;;;;;;;;2106068;28;20043;-44
2022/10/30 01:51:49;;;;;;;9.27;5.57;;;;;;;;;;2105921;28;20542;-45
2022/10/30 01:52:55;;;;;;;10.88;6.05;;;;;;;;;;2106270;28;20044;-43
2022/10/30 01:53:59;;;;;;;13.98;6.10;;;;;;;;;;2106206;28;20047;-43
2022/10/30 01:55:03;;;;;;;11.07;5.78;;;;;;;;;;2106007;28;20052;-43
2022/10/30 01:56:09;;;;;;;10.43;6.05;;;;;;;;;;2106203;28;20052;-43
2022/10/30 01:57:13;;;;;;;12.27;5.90;;;;;;;;;;2106075;28;20044;-43
2022/10/30 01:58:18;;;;;;;13.63;6.20;;;;;;;;;;2106008;28;20071;-43
2022/10/30 01:59:23;;;;;;;9.90;5.65;;;;;;;;;;2106207;28;20052;-44
2022/10/30 02:00:25;;;;;;;9.93;5.75;;;;;;;;;;2105996;28;20043;-43
2022/10/30 02:01:27;;;;;;;12.32;5.72;;;;;;;;;;2106003;28;20048;-43
2022/10/30 02:02:28;;;;;;;13.07;5.72;;;;;;;;;;2105949;28;20131;-44
2022/10/30 02:03:30;;;;;;;13.57;6.43;;;;;;;;;;2106051;28;20082;-43
2022/10/30 02:04:31;;;;;;;7.78;5.18;;;;;;;;;;2106061;28;20101;-43
2022/10/30 02:05:35;;;;;;;10.38;5.78;;;;;;;;;;2106074;28;20553;-43
2022/10/30 02:06:36;;;;;;;9.90;5.55;;;;;;;;;;2105824;28;20048;-43
2022/10/30 02:07:38;;;;;;;13.77;7.25;;;;;;;;;;2106096;28;20073;-43
2022/10/30 02:08:38;;;;;;;13.10;5.97;;;;;;;;;;2105936;28;20404;-43
2022/10/30 02:09:40;;;;;;;10.33;5.90;;;;;;;;;;2106103;28;20036;-44
2022/10/30 02:10:41;;;;;;;10.77;5.75;;;;;;;;;;2106101;28;20052;-43
2022/10/30 02:11:43;;;;;;;16.55;5.57;;;;;;;;;;2106043;28;20044;-44
2022/10/30 02:12:44;;;;;;;9.48;5.95;;;;;;;;;;2106103;28;20058;-44
2022/10/30 02:13:46;;;;;;;10.97;5.43;;;;;;;;;;2105973;28;20055;-44
2022/10/30 02:14:47;;;;;;;;;;;;;;;;;;2106627;28;20048;-44
2022/10/30 02:15:48;;;;;;;8.93;4.95;;;;;;;;;;2105694;28;20376;-45
2022/10/30 02:16:50;;;;;;;11.38;5.80;;;;;;;;;;2106050;28;20055;-44
2022/10/30 02:17:51;;;;;;;13.10;6.38;;;;;;;;;;2105868;28;20440;-45
2022/10/30 02:18:52;;;;;;;12.07;6.30;;;;;;;;;;2109405;28;20044;-44
2022/10/30 02:19:54;;;;;;;8.43;5.70;;;;;;;;;;2114273;28;20047;-45
2022/10/30 02:20:55;;;;;;;14.48;5.72;;;;;;;;;;2114368;28;20058;-45
2022/10/30 02:21:56;;;;;;;9.55;5.72;;;;;;;;;;2114443;28;20051;-45
2022/10/30 02:22:57;;;;;;;10.27;5.80;;;;;;;;;;2114283;28;20541;-44
2022/10/30 02:24:00;;;;;;;12.25;6.22;;;;;;;;;;2114438;28;20048;-44
2022/10/30 02:25:01;;;;;;;13.25;6.25;;;;;;;;;;2114720;28;20055;-45
2022/10/30 02:26:02;;;;;;;12.23;5.87;;;;;;;;;;2114347;28;20086;-44
2022/10/30 02:27:03;;;;;;;13.05;6.13;;;;;;;;;;2114288;28;20065;-45
2022/10/30 02:28:04;;;;;;;15.18;6.55;;;;;;;;;;2114293;28;20139;-45
2022/10/30 02:29:05;;;;;;;11.25;5.60;;;;;;;;;;2114328;28;20051;-44
2022/10/30 02:30:08;;;;;;;8.37;5.73;;;;;;;;;;2114455;28;20613;-44
2022/10/30 02:31:09;;;;;;;8.85;5.72;;;;;;;;;;2114302;28;20093;-43
2022/10/30 02:32:10;;;;;;;9.63;6.17;;;;;;;;;;2113159;28;20549;-43
2022/10/30 02:33:11;;;;;;;8.63;5.55;;;;;;;;;;2106192;28;20181;-43
2022/10/30 02:34:12;;;;;;;12.20;6.53;;;;;;;;;;2105522;28;20473;-43
2022/10/30 02:35:13;;;;;;;9.75;5.90;;;;;;;;;;2105959;28;20059;-43
2022/10/30 02:36:15;;;;;;;10.57;5.23;;;;;;;;;;2105721;28;20399;-43
2022/10/30 02:37:16;;;;;;;13.23;5.88;;;;;;;;;;2105778;28;20071;-43
2022/10/30 02:38:17;;;;;;;8.43;5.17;;;;;;;;;;2105845;28;20047;-43
2022/10/30 02:39:20;;;;;;;9.73;6.28;;;;;;;;;;2105742;28;20410;-43
2022/10/30 02:40:21;;;;;;;12.35;5.32;;;;;;;;;;2105899;28;20070;-43
2022/10/30 02:41:22;;;;;;;14.85;5.75;;;;;;;;;;2106076;28;20056;-44
2022/10/30 02:42:23;;;;;;;10.43;5.28;;;;;;;;;;2106084;28;20052;-43
2022/10/30 02:43:24;;;;;;;10.35;5.80;;;;;;;;;;2105936;28;20040;-43
2022/10/30 02:44:25;;;;;;;8.30;5.25;;;;;;;;;;2105878;28;20056;-43
2022/10/30 02:45:26;;;;;;;7.28;5.25;;;;;;;;;;2105733;28;20048;-43
2022/10/30 02:46:27;;;;;;;14.38;6.10;;;;;;;;;;2105805;28;20074;-43
2022/10/30 02:47:28;;;;;;;8.45;5.10;;;;;;;;;;2105776;28;20048;-43
2022/10/30 02:48:29;;;;;;;11.87;6.10;;;;;;;;;;2105896;28;20040;-43
2022/10/30 02:49:30;;;;;;;9.20;4.90;;;;;;;;;;2105793;28;20060;-43
2022/10/30 02:50:32;;;;;;;8.23;5.30;;;;;;;;;;2106113;28;20044;-43
2022/10/30 02:51:33;;;;;;;9.05;5.88;;;;;;;;;;2105778;28;20044;-43
2022/10/30 02:52:34;;;;;;;10.48;5.43;;;;;;;;;;2105866;28;20186;-43
2022/10/30 02:53:35;;;;;;;10.52;5.07;;;;;;;;;;2105796;28;20481;-44
2022/10/30 02:54:36;;;;;;;12.50;6.15;;;;;;;;;;2105841;28;20044;-43
2022/10/30 02:55:37;;;;;;;12.05;5.88;;;;;;;;;;2105807;28;20062;-43
2022/10/30 02:56:39;;;;;;;9.13;5.43;;;;;;;;;;2105630;28;20041;-43
2022/10/30 02:57:40;;;;;;;9.02;5.72;;;;;;;;;;2105797;28;20048;-43
2022/10/30 02:58:41;;;;;;;8.17;5.40;;;;;;;;;;2106803;28;20127;-43
2022/10/30 02:59:42;;;;;;;11.65;5.57;;;;;;;;;;2114266;28;20051;-43
2022/10/30 03:00:43;;;;;;;10.50;5.60;;;;;;;;;;2114118;28;20480;-43
2022/10/30 03:01:44;;;;;;;12.27;5.90;;;;;;;;;;2114038;28;20504;-42
2022/10/30 03:02:45;;;;;;;11.07;5.47;;;;;;;;;;2114151;28;20089;-43
2022/10/30 03:03:46;;;;;;;8.80;5.13;;;;;;;;;;2114094;28;20431;-43
2022/10/30 03:04:47;;;;;;;10.67;5.90;;;;;;;;;;2114465;28;20058;-43
2022/10/30 03:05:48;;;;;;;9.35;5.22;;;;;;;;;;2113913;28;20506;-43
2022/10/30 03:06:50;;;;;;;8.63;4.50;;;;;;;;;;2114092;28;20051;-43
2022/10/30 03:07:53;;;;;;;15.10;5.03;;;;;;;;;;2114048;28;20044;-43
2022/10/30 03:08:54;;;;;;;10.82;5.88;;;;;;;;;;2114164;28;20051;-43
2022/10/30 03:09:55;;;;;;;11.68;5.90;;;;;;;;;;2114298;28;20059;-43
2022/10/30 03:10:59;;;;;;;9.43;5.10;;;;;;;;;;2114117;28;20488;-43
2022/10/30 03:12:00;;;;;;;10.00;5.15;;;;;;;;;;2114326;28;20059;-43
2022/10/30 03:13:01;;;;;;;14.03;4.93;;;;;;;;;;2114089;28;20051;-43
2022/10/30 03:14:02;;;;;;;9.95;5.57;;;;;;;;;;2114125;28;20081;-43
2022/10/30 03:15:04;;;;;;;11.18;5.30;;;;;;;;;;2114161;28;20044;-43
2022/10/30 03:16:06;;;;;;;13.25;5.60;;;;;;;;;;2114028;28;20083;-42
2022/10/30 03:17:07;;;;;;;9.25;5.13;;;;;;;;;;2114401;28;20048;-45
2022/10/30 03:18:08;;;;;;;10.68;5.10;;;;;;;;;;2114029;28;20043;-45
2022/10/30 03:19:09;;;;;;;11.20;4.97;;;;;;;;;;2114000;28;20040;-44
2022/10/30 03:20:10;;;;;;;7.80;5.15;;;;;;;;;;2114413;28;20048;-43
2022/10/30 03:21:12;;;;;;;9.98;5.40;;;;;;;;;;2114053;28;20183;-43
2022/10/30 03:22:14;;;;;;;15.05;5.57;;;;;;;;;;2113998;28;20496;-42
2022/10/30 03:23:15;;;;;;;10.82;5.60;;;;;;;;;;2113997;28;20048;-42
2022/10/30 03:24:16;;;;;;;9.90;4.93;;;;;;;;;;2114114;28;20047;-43
2022/10/30 03:25:22;;;;;;;8.45;5.63;;;;;;;;;;2114177;28;20400;-42
2022/10/30 03:26:23;;;;;;;9.98;5.07;;;;;;;;;;2114074;28;20099;-43
2022/10/30 03:27:24;;;;;;;10.55;5.13;;;;;;;;;;2114062;28;20059;-42
2022/10/30 03:28:26;;;;;;;15.30;5.80;;;;;;;;;;2112781;28;20050;-42
2022/10/30 03:29:27;;;;;;;;;;;;;;;;;;2106031;28;20407;-43
2022/10/30 03:30:28;;;;;;;10.43;5.20;;;;;;;;;;2105713;28;20263;-42
2022/10/30 03:31:29;;;;;;;13.25;5.82;;;;;;;;;;2105879;28;20048;-43
2022/10/30 03:32:31;;;;;;;10.65;5.72;;;;;;;;;;2105538;28;20052;-42
2022/10/30 03:33:32;;;;;;;12.88;5.68;;;;;;;;;;2105659;28;20048;-42
2022/10/30 03:34:33;;;;;;;7.95;4.95;;;;;;;;;;2105550;28;20050;-43
2022/10/30 03:35:34;;;;;;;11.90;5.00;;;;;;;;;;2105486;28;20529;-43
2022/10/30 03:36:35;;;;;;;12.45;5.65;;;;;;;;;;2105545;28;20048;-45
2022/10/30 03:37:37;;;;;;;14.15;5.95;;;;;;;;;;2105644;28;20047;-44
2022/10/30 03:38:38;;;;;;;9.18;5.10;;;;;;;;;;2105581;28;20089;-44
2022/10/30 03:39:39;;;;;;;10.27;5.28;;;;;;;;;;2105442;28;20437;-45
2022/10/30 03:40:41;;;;;;;9.63;5.32;;;;;;;;;;2105540;28;20048;-44
2022/10/30 03:41:42;;;;;;;16.58;5.88;;;;;;;;;;2105461;28;20040;-44
2022/10/30 03:42:43;;;;;;;12.00;5.80;;;;;;;;;;2105614;28;20044;-44
2022/10/30 03:43:44;;;;;;;10.18;5.80;;;;;;;;;;2105476;28;20044;-44
2022/10/30 03:44:45;;;;;;;7.72;5.47;;;;;;;;;;2105625;28;20052;-45
2022/10/30 03:45:47;;;;;;;7.65;4.45;;;;;;;;;;2105747;28;20473;-42
2022/10/30 03:46:48;;;;;;;9.63;5.50;;;;;;;;;;2107184;28;20044;-43
2022/10/30 03:47:49;;;;;;;11.57;5.78;;;;;;;;;;2107192;28;20070;-42
2022/10/30 03:48:50;;;;;;;7.97;5.13;;;;;;;;;;2106983;28;20043;-43
2022/10/30 03:49:51;;;;;;;10.65;5.90;;;;;;;;;;2106916;28;20443;-42
2022/10/30 03:50:53;;;;;;;11.00;5.30;;;;;;;;;;2106893;28;20048;-42
2022/10/30 03:51:53;;;;;;;10.75;5.65;;;;;;;;;;2106933;28;20044;-42
2022/10/30 03:52:55;;;;;;;8.65;5.35;;;;;;;;;;2106887;28;20421;-42
2022/10/30 03:53:56;;;;;;;7.47;4.85;;;;;;;;;;2106957;28;20051;-43
2022/10/30 03:54:57;;;;;;;8.77;5.00;;;;;;;;;;2106994;28;20535;-42
2022/10/30 03:55:59;;;;;;;10.18;5.40;;;;;;;;;;2106839;28;20051;-42
2022/10/30 03:57:00;;;;;;;9.20;5.00;;;;;;;;;;2106912;28;20092;-42
2022/10/30 03:58:01;;;;;;;13.02;5.65;;;;;;;;;;2106976;28;20048;-42
2022/10/30 03:59:02;;;;;;;11.10;5.73;;;;;;;;;;2106950;28;20538;-42
2022/10/30 04:00:04;;;;;;;9.90;5.13;;;;;;;;;;2106940;28;20055;-42
2022/10/30 04:01:06;;;;;;;9.43;5.15;;;;;;;;;;2106832;28;20059;-42
2022/10/30 04:02:06;;;;;;;13.57;5.38;;;;;;;;;;2106797;28;20412;-42
2022/10/30 04:03:09;;;;;;;10.07;4.65;;;;;;;;;;2106799;28;20390;-42
2022/10/30 04:04:09;;;;;;;7.20;4.88;;;;;;;;;;2106684;28;20055;-42
2022/10/30 04:05:11;;;;;;;10.50;4.73;;;;;;;;;;2106941;28;20047;-42
2022/10/30 04:06:12;;;;;;;9.23;5.15;;;;;;;;;;2106764;28;20055;-43
2022/10/30 04:07:13;;;;;;;9.83;4.77;;;;;;;;;;2106910;28;20138;-42
2022/10/30 04:08:14;;;;;;;11.55;4.50;;;;;;;;;;2106831;28;20052;-42
2022/10/30 04:09:15;;;;;;;8.15;4.05;;;;;;;;;;2107024;28;20051;-46
2022/10/30 04:10:16;;;;;;;10.23;4.57;;;;;;;;;;2106683;28;20385;-44
2022/10/30 04:11:24;;;;;;;8.75;4.63;;;;;;;;;;2106998;28;20047;-44
2022/10/30 04:12:25;;;;;;;8.82;4.57;;;;;;;;;;2106830;28;20052;-43
2022/10/30 04:13:26;;;;;;;11.87;5.10;;;;;;;;;;2106748;28;20090;-45
2022/10/30 04:14:27;;;;;;;11.65;4.65;;;;;;;;;;2106691;28;20073;-44
2022/10/30 04:15:28;;;;;;;8.70;4.57;;;;;;;;;;2106911;28;20093;-45
2022/10/30 04:16:29;;;;;;;8.82;5.10;;;;;;;;;;2106674;28;20052;-44
2022/10/30 04:17:30;;;;;;;7.27;4.17;;;;;;;;;;2106731;28;20084;-44
2022/10/30 04:18:31;;;;;;;9.18;4.30;;;;;;;;;;2106829;28;20048;-43
2022/10/30 04:19:32;;;;;;;6.15;4.15;;;;;;;;;;2106626;28;20048;-45
2022/10/30 04:20:34;;;;;;;11.20;5.53;;;;;;;;;;2106712;28;20044;-45
2022/10/30 04:21:34;;;;;;;7.80;4.63;;;;;;;;;;2106557;28;20412;-44
2022/10/30 04:22:36;;;;;;;11.13;4.60;;;;;;;;;;2106793;28;20048;-43
2022/10/30 04:23:37;;;;;;;6.63;4.40;;;;;;;;;;2106639;28;20116;-46
2022/10/30 04:24:39;;;;;;;8.45;4.53;;;;;;;;;;2106727;28;20047;-44
2022/10/30 04:25:40;;;;;;;7.85;4.18;;;;;;;;;;2106764;28;20036;-45
2022/10/30 04:26:41;;;;;;;6.00;4.10;;;;;;;;;;2106536;28;20047;-44
2022/10/30 04:27:43;;;;;;;9.63;4.72;;;;;;;;;;2106770;28;20055;-44
2022/10/30 04:28:46;;;;;;;13.23;4.78;;;;;;;;;;2106865;28;20405;-42
2022/10/30 04:29:47;;;;;;;7.70;4.75;;;;;;;;;;2106731;28;20052;-42
2022/10/30 04:30:48;;;;;;;10.67;4.23;;;;;;;;;;2106560;28;20515;-42
2022/10/30 04:31:49;;;;;;;9.77;4.40;;;;;;;;;;2106613;28;20044;-42
2022/10/30 04:32:51;;;;;;;10.60;4.10;;;;;;;;;;2106683;28;20104;-42
2022/10/30 04:33:52;;;;;;;8.15;4.30;;;;;;;;;;2107652;28;20040;-42
2022/10/30 04:34:53;;;;;;;8.47;4.70;;;;;;;;;;2106681;28;20044;-42
2022/10/30 04:35:55;;;;;;;10.45;4.10;;;;;;;;;;2106383;28;20105;-42
2022/10/30 04:36:56;;;;;;;16.15;4.40;;;;;;;;;;2106695;28;20044;-42
2022/10/30 04:37:57;;;;;;;8.20;4.75;;;;;;;;;;2106568;28;20048;-42
2022/10/30 04:38:59;;;;;;;8.57;4.25;;;;;;;;;;2106699;28;20052;-42
2022/10/30 04:40:00;;;;;;;;;;;;;;;;;;2107482;28;20048;-42
2022/10/30 04:41:01;;;;;;;13.43;5.78;;;;;;;;;;2106569;28;20380;-42
2022/10/30 04:42:02;;;;;;;6.07;4.35;;;;;;;;;;2106542;28;20059;-42
2022/10/30 04:43:04;;;;;;;10.03;4.30;;;;;;;;;;2106572;28;20083;-42
2022/10/30 04:44:05;;;;;;;6.72;4.07;;;;;;;;;;2106721;28;20345;-42
2022/10/30 04:45:06;;;;;;;8.23;4.03;;;;;;;;;;2106446;28;20044;-42
2022/10/30 04:46:16;;;;;;;8.52;4.32;;;;;;;;;;2106388;28;20066;-42
2022/10/30 04:47:16;;;;;;;6.45;4.30;;;;;;;;;;2106615;28;20059;-44
2022/10/30 04:48:18;;;;;;;7.97;3.70;;;;;;;;;;2106712;28;20059;-44
2022/10/30 04:49:19;;;;;;;6.72;4.05;;;;;;;;;;2106389;28;20040;-42
2022/10/30 04:50:20;;;;;;;7.00;3.87;;;;;;;;;;2106751;28;20477;-42
2022/10/30 04:51:21;;;;;;;11.88;3.88;;;;;;;;;;2106642;28;20055;-44
2022/10/30 04:52:22;;;;;;;7.03;3.53;;;;;;;;;;2106705;28;20097;-44
2022/10/30 04:53:23;;;;;;;8.15;3.33;;;;;;;;;;2106920;28;20055;-42
2022/10/30 04:54:26;;;;;;;7.67;3.93;;;;;;;;;;2106631;28;20464;-42
2022/10/30 04:55:27;;;;;;;6.43;4.38;;;;;;;;;;2106681;28;20052;-44
2022/10/30 04:56:28;;;;;;;6.78;3.70;;;;;;;;;;2106510;28;20048;-43
2022/10/30 04:57:30;;;;;;;7.68;4.10;;;;;;;;;;2106617;28;20050;-42
2022/10/30 04:58:31;;;;;;;;;;;;;;;;;;2107161;28;20044;-42
2022/10/30 04:59:32;;;;;;;6.88;3.63;;;;;;;;;;2106392;28;20376;-42
2022/10/30 05:00:33;;;;;;;10.13;4.53;;;;;;;;;;2106361;28;20040;-42
2022/10/30 05:01:34;;;;;;;6.95;3.80;;;;;;;;;;2106484;28;20101;-42
2022/10/30 05:02:35;;;;;;;8.27;3.60;;;;;;;;;;2106581;28;20055;-44
2022/10/30 05:03:37;;;;;;;6.22;3.80;;;;;;;;;;2106436;28;20044;-44
2022/10/30 05:04:38;;;;;;;8.23;4.27;;;;;;;;;;2106452;28;20485;-44
2022/10/30 05:05:39;;;;;;;7.95;4.35;;;;;;;;;;2106787;28;20485;-44
2022/10/30 05:06:40;;;;;;;8.60;5.33;;;;;;;;;;2106956;28;20131;-44
2022/10/30 05:07:41;;;;;;;8.73;5.22;;;;;;;;;;2106523;28;20052;-44
2022/10/30 05:08:43;;;;;;;9.35;5.32;;;;;;;;;;2106685;28;20440;-45
2022/10/30 05:09:45;;;;;;;11.80;5.43;;;;;;;;;;2106304;28;20405;-45
2022/10/30 05:10:46;;;;;;;12.70;4.60;;;;;;;;;;2106402;28;20503;-45
2022/10/30 05:11:47;;;;;;;8.97;4.77;;;;;;;;;;2106590;28;20040;-42
2022/10/30 05:12:50;;;;;;;5.32;3.80;;;;;;;;;;2106592;28;20047;-42
2022/10/30 05:13:51;;;;;;;7.22;3.33;;;;;;;;;;2106509;28;20043;-42
2022/10/30 05:14:52;;;;;;;5.30;3.40;;;;;;;;;;2106663;28;20051;-43
2022/10/30 05:15:53;;;;;;;7.13;3.97;;;;;;;;;;2107007;28;20090;-44
2022/10/30 05:16:54;;;;;;;7.55;3.75;;;;;;;;;;2107077;28;20051;-44
2022/10/30 05:17:55;;;;;;;8.37;3.67;;;;;;;;;;2106617;28;20064;-44
2022/10/30 05:18:57;;;;;;;8.68;3.97;;;;;;;;;;2106458;28;20063;-42
2022/10/30 05:19:58;;;;;;;7.80;3.97;;;;;;;;;;2107021;28;20063;-42
2022/10/30 05:20:59;;;;;;;9.02;3.78;;;;;;;;;;2106241;28;20507;-42
2022/10/30 05:22:00;;;;;;;5.57;3.17;;;;;;;;;;2106812;28;20181;-44
2022/10/30 05:23:01;;;;;;;8.38;3.40;;;;;;;;;;2106470;28;20044;-42
2022/10/30 05:24:02;;;;;;;7.13;3.87;;;;;;;;;;2106326;28;20173;-42
2022/10/30 05:25:05;;;;;;;8.27;3.88;;;;;;;;;;2106404;28;20777;-44
2022/10/30 05:26:06;;;;;;;6.97;3.55;;;;;;;;;;2106507;28;20059;-42
2022/10/30 05:27:07;;;;;;;12.88;3.83;;;;;;;;;;2106307;28;20055;-42
2022/10/30 05:28:08;;;;;;;8.87;4.27;;;;;;;;;;2106465;28;20504;-45
2022/10/30 05:29:09;;;;;;;8.32;4.18;;;;;;;;;;2106379;28;20420;-42
2022/10/30 05:30:11;;;;;;;5.53;3.00;;;;;;;;;;2106250;28;20048;-42
2022/10/30 05:31:12;;;;;;;5.53;3.42;;;;;;;;;;2106072;28;20047;-42
2022/10/30 05:32:13;;;;;;;6.53;4.10;;;;;;;;;;2106357;28;20473;-42
2022/10/30 05:33:19;;;;;;;7.43;4.30;;;;;;;;;;2106561;28;20056;-42
2022/10/30 05:34:20;;;;;;;6.87;3.73;;;;;;;;;;2106774;28;20048;-42
2022/10/30 05:35:21;;;;;;;5.63;3.28;;;;;;;;;;2106708;28;20051;-42
2022/10/30 05:36:22;;;;;;;6.57;3.10;;;;;;;;;;2105916;28;20450;-42
2022/10/30 05:37:23;;;;;;;9.23;3.65;;;;;;;;;;2106448;28;20063;-43
2022/10/30 05:38:24;;;;;;;6.18;3.70;;;;;;;;;;2106541;28;20408;-42
2022/10/30 05:39:25;;;;;;;9.82;3.95;;;;;;;;;;2106496;28;20081;-44
2022/10/30 05:40:27;;;;;;;6.83;3.87;;;;;;;;;;2106285;28;20466;-44
2022/10/30 05:41:28;;;;;;;11.45;4.30;;;;;;;;;;2106131;28;20102;-44
2022/10/30 05:42:29;;;;;;;9.67;3.87;;;;;;;;;;2106297;28;20408;-44
2022/10/30 05:43:30;;;;;;;8.13;3.80;;;;;;;;;;2106362;28;20421;-44
2022/10/30 05:44:31;;;;;;;10.70;4.50;;;;;;;;;;2106224;28;20051;-44
2022/10/30 05:45:52;;;;;;;5.15;4.00;;;;;;;;;;2105992;28;20048;-45
2022/10/30 05:46:53;;;;;;;9.17;3.43;;;;;;;;;;2109520;28;20052;-45
2022/10/30 05:48:00;;;;;;;8.07;4.35;;;;;;;;;;2114678;28;20070;-43
2022/10/30 05:49:02;;;;;;;7.95;3.58;;;;;;;;;;2114498;28;20054;-44
2022/10/30 05:50:03;;;;;;;5.85;3.83;;;;;;;;;;2114679;28;20413;-44
2022/10/30 05:51:05;;;;;;;6.80;3.38;;;;;;;;;;2115016;28;20047;-42
2022/10/30 05:52:06;;;;;;;6.53;3.35;;;;;;;;;;2114730;28;20048;-42
2022/10/30 05:53:08;;;;;;;8.70;3.20;;;;;;;;;;2115046;28;20388;-42
2022/10/30 05:54:10;;;;;;;6.20;3.17;;;;;;;;;;2114872;28;20488;-42
2022/10/30 05:55:11;;;;;;;9.57;3.67;;;;;;;;;;2115604;28;20131;-43
2022/10/30 05:56:13;;;;;;;7.55;2.90;;;;;;;;;;2114490;28;20050;-44
2022/10/30 05:57:14;;;;;;;6.57;3.40;;;;;;;;;;2114557;28;20055;-45
2022/10/30 05:58:15;;;;;;;6.13;3.33;;;;;;;;;;2114638;28;20159;-44
2022/10/30 05:59:16;;;;;;;7.80;3.03;;;;;;;;;;2114421;28;20044;-44
2022/10/30 06:00:18;;;;;;;7.72;3.25;;;;;;;;;;2115436;28;20051;-42
2022/10/30 06:01:19;;;;;;;6.97;2.75;;;;;;;;;;2114352;28;20059;-42
2022/10/30 06:02:20;;;;;;;4.38;2.67;;;;;;;;;;2114587;28;20407;-42
2022/10/30 06:03:22;;;;;;;8.57;2.92;;;;;;;;;;2114827;28;20176;-44
2022/10/30 06:04:23;;;;;;;4.18;2.42;;;;;;;;;;2114580;28;20052;-44
2022/10/30 06:05:24;;;;;;;3.97;2.37;;;;;;;;;;2114651;28;20059;-44
2022/10/30 06:06:26;;;;;;;5.18;2.67;;;;;;;;;;2114482;28;20058;-44
2022/10/30 06:07:26;;;;;;;5.47;2.42;;;;;;;;;;2114560;28;20515;-44
2022/10/30 06:08:28;;;;;;;4.57;2.33;;;;;;;;;;2115088;28;20054;-42
2022/10/30 06:09:29;;;;;;;5.18;2.25;;;;;;;;;;2114794;28;20055;-44
2022/10/30 06:10:30;;;;;;;5.33;3.20;;;;;;;;;;2114704;28;20074;-45